createdAt,value
2018-07-01T00:01:22.683Z,1.80
2018-07-01T00:03:53.893Z,1.83
2018-07-01T00:06:25.261Z,1.50
2018-07-01T00:08:56.407Z,1.53
2018-07-01T00:11:27.605Z,1.73
2018-07-01T00:13:59.003Z,1.60
2018-07-01T00:16:30.199Z,1.50
2018-07-01T00:19:01.660Z,1.60
2018-07-01T00:21:32.479Z,1.60
2018-07-01T00:24:04.044Z,1.60
2018-07-01T00:26:35.332Z,1.60
2018-07-01T00:29:06.360Z,1.50
2018-07-01T00:31:37.969Z,1.60
2018-07-01T00:34:09.316Z,1.47
2018-07-01T00:36:40.522Z,1.57
2018-07-01T00:39:13.208Z,1.50
2018-07-01T00:41:44.290Z,1.57
2018-07-01T00:44:15.939Z,1.80
2018-07-01T00:46:46.687Z,1.63
2018-07-01T00:49:18.035Z,1.50
2018-07-01T00:51:49.461Z,1.60
2018-07-01T00:54:21.064Z,1.60
2018-07-01T00:56:55.702Z,1.47
2018-07-01T00:59:26.724Z,1.63
2018-07-01T01:01:58.115Z,1.60
2018-07-01T01:04:29.499Z,1.60
2018-07-01T01:07:00.923Z,1.63
2018-07-01T01:09:32.333Z,1.60
2018-07-01T01:12:03.507Z,1.80
2018-07-01T01:14:34.898Z,1.60
2018-07-01T01:17:06.280Z,1.67
2018-07-01T01:19:37.698Z,1.63
2018-07-01T01:22:08.905Z,1.70
2018-07-01T01:24:40.077Z,1.60
2018-07-01T01:27:11.193Z,1.60
2018-07-01T01:29:42.582Z,1.60
2018-07-01T01:32:14.364Z,1.60
2018-07-01T01:34:46.160Z,1.70
2018-07-01T01:37:17.511Z,1.80
2018-07-01T01:39:48.593Z,1.87
2018-07-01T01:42:25.596Z,1.50
2018-07-01T01:45:05.951Z,1.60
2018-07-01T01:47:42.112Z,1.97
2018-07-01T01:50:18.070Z,1.63
2018-07-01T01:53:56.742Z,1.90
2018-07-01T01:56:32.974Z,1.90
2018-07-01T01:59:10.952Z,2.20
2018-07-01T02:01:52.233Z,1.70
2018-07-01T02:04:28.129Z,1.70
2018-07-01T02:07:02.902Z,1.90
2018-07-01T02:09:36.116Z,1.90
2018-07-01T02:12:09.774Z,1.80
2018-07-01T02:15:15.072Z,2.00
2018-07-01T02:17:48.885Z,1.80
2018-07-01T02:20:22.278Z,1.70
2018-07-01T02:23:03.402Z,1.90
2018-07-01T02:25:35.740Z,1.90
2018-07-01T02:28:07.642Z,1.63
2018-07-01T02:30:38.897Z,2.00
2018-07-01T02:33:10.274Z,2.03
2018-07-01T02:35:42.465Z,2.00
2018-07-01T02:38:13.688Z,1.63
2018-07-01T02:40:45.107Z,1.80
2018-07-01T02:43:16.254Z,2.00
2018-07-01T02:45:47.447Z,1.93
2018-07-01T02:48:18.648Z,1.97
2018-07-01T02:50:49.821Z,2.07
2018-07-01T02:53:21.440Z,2.13
2018-07-01T02:55:52.742Z,2.33
2018-07-01T02:58:23.916Z,2.20
2018-07-01T03:00:55.444Z,2.23
2018-07-01T03:03:28.282Z,1.90
2018-07-01T03:05:59.988Z,1.90
2018-07-01T03:08:31.549Z,2.10
2018-07-01T03:11:02.879Z,2.10
2018-07-01T03:13:34.085Z,2.20
2018-07-01T03:16:05.529Z,2.20
2018-07-01T03:18:36.620Z,2.07
2018-07-01T03:21:08.125Z,2.20
2018-07-01T03:23:39.433Z,2.37
2018-07-01T03:26:10.855Z,2.10
2018-07-01T03:28:42.515Z,1.97
2018-07-01T03:31:13.584Z,2.30
2018-07-01T03:33:44.774Z,2.30
2018-07-01T03:36:16.026Z,2.43
2018-07-01T03:38:47.927Z,2.40
2018-07-01T03:41:19.129Z,2.53
2018-07-01T03:43:50.307Z,2.60
2018-07-01T03:46:21.511Z,2.73
2018-07-01T03:48:52.896Z,2.87
2018-07-01T03:51:24.273Z,2.70
2018-07-01T03:53:55.492Z,2.93
2018-07-01T03:56:26.844Z,2.57
2018-07-01T03:58:58.562Z,3.20
2018-07-01T04:01:29.848Z,2.90
2018-07-01T04:04:01.145Z,2.90
2018-07-01T04:06:32.976Z,2.83
2018-07-01T04:09:04.939Z,2.70
2018-07-01T04:11:36.204Z,2.80
2018-07-01T04:14:07.590Z,2.97
2018-07-01T04:16:39.689Z,2.70
2018-07-01T04:19:11.267Z,3.00
2018-07-01T04:21:42.297Z,3.13
2018-07-01T04:24:13.320Z,2.93
2018-07-01T04:26:44.778Z,2.90
2018-07-01T04:29:15.575Z,3.13
2018-07-01T04:31:46.656Z,2.93
2018-07-01T04:34:18.333Z,2.80
2018-07-01T04:36:49.472Z,2.73
2018-07-01T04:39:20.652Z,3.00
2018-07-01T04:41:52.176Z,3.07
2018-07-01T06:38:20.584Z,6.40
2018-07-01T06:40:51.741Z,6.37
2018-07-01T06:43:23.149Z,6.50
2018-07-01T06:45:54.506Z,5.73
2018-07-01T06:48:25.729Z,6.10
2018-07-01T06:50:56.893Z,5.33
2018-07-01T06:53:28.089Z,5.63
2018-07-01T06:55:59.467Z,5.60
2018-07-01T06:58:30.721Z,6.27
2018-07-01T07:01:01.890Z,5.83
2018-07-01T07:03:33.021Z,5.63
2018-07-01T07:06:04.248Z,5.17
2018-07-01T07:08:35.623Z,4.40
2018-07-01T07:11:06.916Z,5.40
2018-07-01T07:13:37.748Z,5.50
2018-07-01T07:16:09.396Z,5.30
2018-07-01T07:18:41.098Z,4.90
2018-07-01T07:21:12.189Z,4.60
2018-07-01T07:23:43.561Z,4.63
2018-07-01T07:26:15.014Z,4.60
2018-07-01T07:28:46.295Z,5.00
2018-07-01T07:31:17.315Z,4.47
2018-07-01T07:33:48.537Z,4.80
2018-07-01T07:36:19.893Z,4.80
2018-07-01T07:38:51.380Z,5.17
2018-07-01T07:41:22.701Z,5.33
2018-07-01T07:43:53.978Z,5.07
2018-07-01T07:46:24.499Z,5.20
2018-07-01T07:48:56.172Z,5.83
2018-07-01T07:51:27.307Z,5.30
2018-07-01T07:53:58.620Z,4.90
2018-07-01T07:56:30.291Z,4.67
2018-07-01T07:59:01.440Z,4.80
2018-07-01T08:01:48.442Z,4.93
2018-07-01T08:07:16.629Z,4.40
2018-07-01T08:09:47.766Z,4.73
2018-07-01T08:12:19.316Z,4.03
2018-07-01T08:14:50.888Z,4.37
2018-07-01T08:17:22.088Z,4.50
2018-07-01T08:19:53.477Z,4.20
2018-07-01T08:22:24.932Z,3.97
2018-07-01T08:24:56.768Z,4.00
2018-07-01T08:27:27.996Z,3.87
2018-07-01T08:29:59.193Z,3.60
2018-07-01T08:32:30.667Z,3.90
2018-07-01T08:35:01.988Z,3.83
2018-07-01T08:37:33.832Z,4.00
2018-07-01T08:40:05.497Z,4.17
2018-07-01T08:42:37.214Z,4.03
2018-07-01T08:45:10.868Z,3.60
2018-07-01T08:47:42.054Z,3.50
2018-07-01T08:50:13.471Z,3.60
2018-07-01T08:52:44.925Z,3.47
2018-07-01T08:55:16.004Z,4.25
2018-07-01T08:57:47.048Z,3.83
2018-07-01T09:00:18.430Z,3.12
2018-07-01T09:02:49.831Z,3.50
2018-07-01T09:05:21.180Z,3.52
2018-07-01T09:07:51.850Z,3.23
2018-07-01T09:10:23.852Z,3.40
2018-07-01T09:12:54.521Z,3.00
2018-07-01T09:15:25.570Z,3.05
2018-07-01T09:17:56.917Z,2.70
2018-07-01T09:20:28.116Z,2.65
2018-07-01T09:22:59.256Z,2.80
2018-07-01T09:25:30.343Z,2.50
2018-07-01T09:28:01.532Z,2.90
2018-07-01T09:30:32.880Z,2.70
2018-07-01T09:33:03.938Z,3.10
2018-07-01T09:35:35.079Z,2.90
2018-07-01T09:38:06.301Z,2.62
2018-07-01T09:40:38.605Z,2.70
2018-07-01T09:43:10.630Z,2.80
2018-07-01T09:45:41.847Z,2.55
2018-07-01T09:48:13.503Z,2.70
2018-07-01T09:50:45.090Z,2.70
2018-07-01T09:53:16.153Z,2.50
2018-07-01T09:55:47.372Z,2.80
2018-07-01T09:58:18.645Z,2.83
2018-07-01T10:00:49.878Z,4.05
2018-07-01T10:03:20.952Z,2.80
2018-07-01T10:05:52.336Z,2.92
2018-07-01T10:08:23.547Z,3.15
2018-07-01T10:10:54.744Z,3.25
2018-07-01T10:13:26.180Z,2.62
2018-07-01T10:15:57.488Z,3.12
2018-07-01T10:18:28.687Z,3.20
2018-07-01T10:20:59.888Z,3.30
2018-07-01T10:23:31.267Z,3.27
2018-07-01T10:26:02.949Z,3.20
2018-07-01T10:28:34.340Z,3.40
2018-07-01T10:31:05.856Z,3.52
2018-07-01T10:33:37.033Z,3.50
2018-07-01T10:36:08.244Z,3.65
2018-07-01T10:38:39.387Z,3.50
2018-07-01T10:41:10.644Z,3.30
2018-07-01T10:43:42.263Z,3.12
2018-07-01T10:46:13.892Z,3.70
2018-07-01T10:48:45.136Z,3.83
2018-07-01T10:51:16.812Z,3.52
2018-07-01T10:53:47.969Z,4.10
2018-07-01T10:56:19.134Z,3.83
2018-07-01T10:58:50.884Z,3.80
2018-07-01T11:01:22.606Z,4.90
2018-07-01T11:03:53.880Z,5.20
2018-07-01T11:06:25.153Z,4.87
2018-07-01T11:08:56.439Z,4.83
2018-07-01T11:11:27.481Z,4.80
2018-07-01T11:13:58.829Z,4.50
2018-07-01T11:16:30.287Z,5.10
2018-07-01T11:19:01.614Z,4.33
2018-07-01T11:21:33.988Z,4.72
2018-07-01T11:24:05.491Z,5.67
2018-07-01T11:26:36.991Z,5.00
2018-07-01T11:29:08.661Z,4.83
2018-07-01T11:31:39.745Z,4.70
2018-07-01T11:34:10.949Z,6.67
2018-07-01T11:36:42.133Z,5.10
2018-07-01T11:39:13.756Z,4.60
2018-07-01T11:41:44.939Z,4.05
2018-07-01T11:44:16.550Z,4.47
2018-07-01T11:46:47.836Z,5.15
2018-07-01T11:49:19.152Z,5.30
2018-07-01T11:51:50.448Z,4.72
2018-07-01T11:54:22.292Z,4.70
2018-07-01T11:56:53.707Z,4.90
2018-07-01T11:59:25.062Z,4.90
2018-07-01T12:01:56.276Z,5.00
2018-07-01T12:04:27.384Z,5.37
2018-07-01T12:06:58.604Z,5.22
2018-07-01T12:09:29.796Z,5.40
2018-07-01T12:12:01.226Z,5.85
2018-07-01T12:14:32.371Z,5.37
2018-07-01T12:17:03.891Z,5.58
2018-07-01T12:19:34.968Z,5.87
2018-07-01T12:22:07.414Z,5.35
2018-07-01T12:24:38.484Z,5.72
2018-07-01T12:27:09.548Z,5.75
2018-07-01T12:29:40.747Z,5.22
2018-07-01T12:32:11.919Z,6.28
2018-07-01T12:34:43.078Z,5.80
2018-07-01T12:37:14.720Z,5.75
2018-07-01T12:39:45.863Z,5.60
2018-07-01T12:42:17.125Z,5.45
2018-07-01T12:44:50.178Z,5.37
2018-07-01T12:47:21.627Z,5.28
2018-07-01T12:49:52.969Z,6.00
2018-07-01T12:52:24.144Z,6.53
2018-07-01T12:54:55.563Z,5.90
2018-07-01T12:57:26.911Z,5.20
2018-07-01T12:59:58.978Z,5.10
2018-07-01T13:02:30.349Z,4.95
2018-07-01T13:05:01.509Z,5.15
2018-07-01T13:07:32.780Z,5.33
2018-07-01T13:10:04.381Z,5.00
2018-07-01T13:12:35.655Z,4.92
2018-07-01T13:15:07.296Z,4.97
2018-07-01T13:17:38.433Z,4.90
2018-07-01T13:20:10.077Z,4.85
2018-07-01T13:22:41.231Z,4.80
2018-07-01T13:25:12.561Z,5.08
2018-07-01T13:27:43.824Z,4.92
2018-07-01T13:30:15.495Z,4.53
2018-07-01T13:32:46.781Z,4.67
2018-07-01T13:35:18.175Z,4.70
2018-07-01T13:37:49.371Z,4.35
2018-07-01T13:40:20.611Z,4.60
2018-07-01T13:42:52.245Z,4.25
2018-07-01T13:45:23.672Z,4.33
2018-07-01T13:47:54.880Z,4.30
2018-07-01T13:50:26.431Z,3.95
2018-07-01T13:52:57.499Z,4.60
2018-07-01T13:55:28.696Z,4.37
2018-07-01T13:58:00.120Z,3.98
2018-07-01T14:00:32.215Z,4.20
2018-07-01T14:03:03.634Z,3.98
2018-07-01T14:05:35.016Z,4.58
2018-07-01T14:08:06.469Z,4.28
2018-07-01T14:10:37.833Z,4.30
2018-07-01T14:15:46.271Z,4.55
2018-07-01T14:18:17.564Z,4.40
2018-07-01T14:20:48.856Z,4.45
2018-07-01T14:23:20.210Z,4.25
2018-07-01T14:25:51.232Z,4.30
2018-07-01T14:28:22.600Z,4.47
2018-07-01T14:30:53.627Z,4.72
2018-07-01T14:33:24.820Z,4.95
2018-07-01T14:35:56.448Z,5.08
2018-07-01T14:38:27.777Z,4.90
2018-07-01T14:40:59.618Z,4.78
2018-07-01T14:43:31.018Z,5.10
2018-07-01T14:46:03.157Z,4.87
2018-07-01T14:48:34.607Z,4.92
2018-07-01T14:51:05.752Z,5.10
2018-07-01T14:53:38.095Z,5.33
2018-07-01T14:56:09.442Z,5.22
2018-07-01T14:58:40.720Z,5.45
2018-07-01T15:01:12.317Z,4.92
2018-07-01T15:03:43.628Z,5.17
2018-07-01T15:06:15.072Z,4.87
2018-07-01T15:08:46.372Z,5.17
2018-07-01T15:11:17.641Z,5.37
2018-07-01T15:13:48.979Z,5.25
2018-07-01T15:16:20.422Z,4.95
2018-07-01T15:18:51.793Z,4.87
2018-07-01T15:21:23.064Z,5.12
2018-07-01T15:23:54.320Z,5.10
2018-07-01T15:26:25.684Z,5.00
2018-07-01T15:28:56.733Z,5.00
2018-07-01T15:31:28.363Z,4.50
2018-07-01T15:33:59.508Z,4.80
2018-07-01T15:36:30.959Z,4.78
2018-07-01T15:39:02.101Z,4.83
2018-07-01T15:41:33.604Z,4.80
2018-07-01T15:44:05.704Z,4.85
2018-07-01T15:46:37.133Z,4.85
2018-07-01T15:49:08.251Z,4.65
2018-07-01T15:51:39.612Z,4.87
2018-07-01T15:54:11.031Z,4.72
2018-07-01T15:56:42.228Z,4.80
2018-07-01T15:59:13.355Z,4.67
2018-07-01T16:01:44.563Z,4.87
2018-07-01T16:04:15.966Z,4.60
2018-07-01T16:06:47.164Z,5.05
2018-07-01T16:09:18.803Z,4.30
2018-07-01T16:11:50.118Z,4.33
2018-07-01T16:14:21.516Z,4.22
2018-07-01T16:16:52.747Z,4.83
2018-07-01T16:19:24.879Z,4.47
2018-07-01T16:21:56.268Z,5.00
2018-07-01T16:24:27.872Z,4.22
2018-07-01T16:27:05.231Z,4.55
2018-07-01T16:29:36.525Z,4.00
2018-07-01T16:32:07.804Z,4.10
2018-07-01T16:34:38.562Z,4.50
2018-07-01T16:37:09.791Z,4.20
2018-07-01T16:39:41.102Z,5.87
2018-07-01T16:42:12.492Z,4.70
2018-07-01T16:44:43.903Z,4.20
2018-07-01T16:47:15.294Z,3.70
2018-07-01T16:49:46.742Z,4.05
2018-07-01T16:52:17.427Z,3.72
2018-07-01T16:54:48.616Z,3.60
2018-07-01T16:57:20.463Z,3.85
2018-07-01T16:59:52.205Z,3.45
2018-07-01T17:02:23.857Z,3.47
2018-07-01T17:04:54.955Z,3.50
2018-07-01T17:07:26.418Z,3.10
2018-07-01T17:09:58.151Z,3.30
2018-07-01T17:12:29.512Z,3.22
2018-07-01T17:15:00.180Z,2.70
2018-07-01T17:17:31.296Z,3.10
2018-07-01T17:20:02.383Z,3.15
2018-07-01T17:22:33.523Z,2.80
2018-07-01T17:25:04.244Z,2.90
2018-07-01T17:27:36.532Z,2.80
2018-07-01T17:30:07.375Z,3.30
2018-07-01T17:32:43.581Z,3.10
2018-07-01T17:35:15.147Z,3.50
2018-07-01T17:37:46.369Z,2.80
2018-07-01T17:40:17.580Z,3.20
2018-07-01T17:42:48.728Z,2.60
2018-07-01T17:45:19.933Z,2.70
2018-07-01T17:47:51.575Z,2.70
2018-07-01T17:50:22.924Z,2.70
2018-07-01T17:52:53.560Z,2.72
2018-07-01T17:55:24.243Z,2.58
2018-07-01T17:57:55.073Z,2.90
2018-07-01T18:00:26.052Z,2.45
2018-07-01T18:02:56.700Z,2.50
2018-07-01T18:05:27.319Z,2.45
2018-07-01T18:07:58.512Z,2.47
2018-07-01T18:10:29.881Z,2.40
2018-07-01T18:13:00.700Z,2.27
2018-07-01T18:15:31.349Z,2.30
2018-07-01T18:18:02.940Z,2.20
2018-07-01T18:20:33.620Z,2.50
2018-07-01T18:23:35.839Z,2.47
2018-07-01T18:25:35.050Z,2.17
2018-07-01T18:28:18.883Z,2.58
2018-07-01T18:30:36.436Z,2.17
2018-07-01T18:33:08.226Z,2.20
2018-07-01T18:35:39.397Z,2.40
2018-07-01T18:38:11.175Z,2.33
2018-07-01T18:40:42.224Z,2.40
2018-07-01T18:43:12.860Z,2.40
2018-07-01T18:45:44.004Z,2.10
2018-07-01T18:48:15.404Z,2.30
2018-07-01T18:50:46.078Z,2.20
2018-07-01T18:53:16.823Z,2.20
2018-07-01T18:55:47.509Z,2.30
2018-07-01T18:58:18.235Z,2.50
2018-07-01T19:00:48.878Z,2.00
2018-07-01T19:03:19.974Z,2.30
2018-07-01T19:05:50.663Z,2.20
2018-07-01T19:08:22.004Z,2.20
2018-07-01T19:10:52.663Z,2.20
2018-07-01T19:13:23.780Z,2.10
2018-07-01T19:15:55.129Z,2.10
2018-07-01T19:18:25.753Z,2.20
2018-07-01T19:20:56.448Z,2.47
2018-07-01T19:23:27.145Z,2.57
2018-07-01T19:25:58.169Z,2.40
2018-07-01T19:28:29.676Z,2.90
2018-07-01T19:31:00.915Z,2.67
2018-07-01T19:33:31.938Z,2.70
2018-07-01T19:36:03.201Z,2.80
2018-07-01T19:38:33.834Z,2.57
2018-07-01T19:41:04.504Z,2.50
2018-07-01T19:43:35.410Z,2.50
2018-07-01T19:46:05.991Z,3.10
2018-07-01T19:48:36.782Z,2.47
2018-07-01T19:51:07.513Z,2.00
2018-07-01T19:53:38.202Z,2.30
2018-07-01T19:56:08.863Z,2.10
2018-07-01T19:58:39.968Z,1.90
2018-07-01T20:01:11.560Z,1.63
2018-07-01T20:03:43.336Z,1.90
2018-07-01T20:06:14.519Z,2.00
2018-07-01T20:08:45.163Z,1.93
2018-07-01T20:11:16.268Z,1.90
2018-07-01T20:13:47.639Z,1.90
2018-07-01T20:16:18.664Z,1.80
2018-07-01T20:18:48.540Z,1.80
2018-07-01T20:21:19.199Z,1.80
2018-07-01T20:23:49.836Z,1.90
2018-07-01T20:26:20.516Z,1.80
2018-07-01T20:28:52.303Z,1.70
2018-07-01T20:31:23.105Z,1.80
2018-07-01T20:33:53.744Z,1.80
2018-07-01T20:36:24.578Z,1.70
2018-07-01T20:38:55.248Z,1.73
2018-07-01T20:41:25.998Z,1.70
2018-07-01T20:43:56.820Z,1.60
2018-07-01T20:46:27.501Z,1.70
2018-07-01T20:48:58.147Z,1.70
2018-07-01T20:51:29.241Z,1.77
2018-07-01T20:53:59.919Z,1.83
2018-07-01T20:56:30.609Z,1.63
2018-07-01T20:59:01.807Z,1.47
2018-07-01T21:01:32.545Z,1.50
2018-07-01T21:04:03.273Z,1.60
2018-07-01T21:06:33.907Z,1.87
2018-07-01T21:09:06.424Z,1.70
2018-07-01T21:11:37.356Z,1.50
2018-07-01T21:14:08.075Z,1.97
2018-07-01T21:16:38.736Z,1.77
2018-07-01T21:19:09.472Z,1.70
2018-07-01T21:21:40.159Z,1.50
2018-07-01T21:24:10.831Z,1.70
2018-07-01T21:26:41.483Z,1.90
2018-07-01T21:29:12.499Z,1.60
2018-07-01T21:31:42.545Z,1.50
2018-07-01T21:34:13.200Z,1.67
2018-07-01T21:36:43.991Z,1.67
2018-07-01T21:39:14.668Z,1.77
2018-07-01T21:41:45.352Z,2.00
2018-07-01T21:44:16.061Z,1.90
2018-07-01T21:46:46.720Z,1.90
2018-07-01T21:49:17.629Z,1.70
2018-07-01T21:51:48.397Z,1.80
2018-07-01T21:54:19.076Z,1.60
2018-07-01T21:56:49.162Z,2.03
2018-07-01T21:59:19.849Z,1.70
2018-07-01T22:01:50.528Z,1.60
2018-07-01T22:04:21.209Z,1.50
2018-07-01T22:06:56.808Z,1.60
2018-07-01T22:09:27.637Z,1.70
2018-07-01T22:12:14.392Z,1.80
2018-07-01T22:15:01.089Z,1.50
2018-07-01T22:17:31.788Z,1.60
2018-07-01T22:20:02.641Z,1.60
2018-07-01T22:22:33.500Z,1.70
2018-07-01T22:25:04.210Z,1.70
2018-07-01T22:27:34.936Z,1.47
2018-07-01T22:30:05.785Z,1.70
2018-07-01T22:32:36.468Z,1.50
2018-07-01T22:35:07.156Z,1.70
2018-07-01T22:37:37.971Z,1.60
2018-07-01T22:40:08.778Z,1.50
2018-07-01T22:42:39.467Z,1.60
2018-07-01T22:45:10.142Z,2.00
2018-07-01T22:47:40.807Z,1.70
2018-07-01T22:50:10.961Z,1.90
2018-07-01T22:52:41.632Z,1.87
2018-07-01T22:55:11.710Z,1.70
2018-07-01T22:57:42.386Z,2.00
2018-07-01T23:00:13.294Z,1.80
2018-07-01T23:03:09.858Z,1.80
2018-07-01T23:05:40.604Z,1.60
2018-07-01T23:08:11.390Z,1.90
2018-07-01T23:10:41.547Z,1.80
2018-07-01T23:13:12.295Z,1.70
2018-07-01T23:15:43.023Z,1.80
2018-07-01T23:18:13.757Z,1.70
2018-07-01T23:20:44.423Z,1.87
2018-07-01T23:23:15.063Z,1.67
2018-07-01T23:25:45.711Z,1.80
2018-07-01T23:28:16.391Z,2.00
2018-07-01T23:30:46.510Z,2.00
2018-07-01T23:33:17.248Z,1.80
2018-07-01T23:35:47.939Z,1.77
2018-07-01T23:38:18.647Z,2.00
2018-07-01T23:40:49.364Z,1.90
2018-07-01T23:43:20.231Z,1.93
2018-07-01T23:45:50.924Z,1.93
2018-07-01T23:48:21.656Z,2.13
2018-07-01T23:50:52.512Z,1.90
2018-07-01T23:53:23.221Z,1.90
2018-07-01T23:55:53.306Z,1.90
2018-07-01T23:58:24.011Z,1.70
